sensor_id;sensor_type;location;lat;lon;timestamp;P1;durP1;ratioP1;P2;durP2;ratioP2
34585;SDS011;20816;50.950;11.108;2023-02-15T00:01:59;8.17;;;4.83;;
34585;SDS011;20816;50.950;11.108;2023-02-15T00:04:26;5.37;;;3.27;;
34585;SDS011;20816;50.950;11.108;2023-02-15T00:07:16;5.67;;;4.50;;
34585;SDS011;20816;50.950;11.108;2023-02-15T00:09:48;8.43;;;3.80;;
34585;SDS011;20816;50.950;11.108;2023-02-15T00:12:15;7.37;;;3.57;;
34585;SDS011;20816;50.950;11.108;2023-02-15T00:14:42;10.23;;;3.97;;
34585;SDS011;20816;50.950;11.108;2023-02-15T00:17:09;8.40;;;3.67;;
34585;SDS011;20816;50.950;11.108;2023-02-15T00:19:36;6.23;;;3.30;;
34585;SDS011;20816;50.950;11.108;2023-02-15T00:22:06;5.53;;;3.63;;
34585;SDS011;20816;50.950;11.108;2023-02-15T00:24:33;4.50;;;3.57;;
34585;SDS011;20816;50.950;11.108;2023-02-15T00:27:00;8.83;;;3.87;;
34585;SDS011;20816;50.950;11.108;2023-02-15T00:29:26;7.53;;;3.47;;
34585;SDS011;20816;50.950;11.108;2023-02-15T00:31:53;8.10;;;3.57;;
34585;SDS011;20816;50.950;11.108;2023-02-15T00:34:20;4.17;;;2.37;;
34585;SDS011;20816;50.950;11.108;2023-02-15T00:36:51;7.87;;;3.23;;
34585;SDS011;20816;50.950;11.108;2023-02-15T00:39:18;8.23;;;4.47;;
34585;SDS011;20816;50.950;11.108;2023-02-15T00:41:45;8.13;;;3.33;;
34585;SDS011;20816;50.950;11.108;2023-02-15T00:44:13;7.70;;;3.93;;
34585;SDS011;20816;50.950;11.108;2023-02-15T00:46:39;7.50;;;4.60;;
34585;SDS011;20816;50.950;11.108;2023-02-15T00:49:06;8.87;;;4.00;;
34585;SDS011;20816;50.950;11.108;2023-02-15T00:51:35;7.80;;;4.27;;
34585;SDS011;20816;50.950;11.108;2023-02-15T00:54:02;6.83;;;3.53;;
34585;SDS011;20816;50.950;11.108;2023-02-15T00:56:28;13.93;;;5.37;;
34585;SDS011;20816;50.950;11.108;2023-02-15T00:58:55;8.10;;;4.27;;
34585;SDS011;20816;50.950;11.108;2023-02-15T01:01:24;7.17;;;4.97;;
34585;SDS011;20816;50.950;11.108;2023-02-15T01:03:52;9.03;;;5.60;;
34585;SDS011;20816;50.950;11.108;2023-02-15T01:06:19;25.57;;;6.30;;
34585;SDS011;20816;50.950;11.108;2023-02-15T01:08:45;14.33;;;6.10;;
34585;SDS011;20816;50.950;11.108;2023-02-15T01:11:16;23.07;;;5.73;;
34585;SDS011;20816;50.950;11.108;2023-02-15T01:13:52;30.17;;;4.17;;
34585;SDS011;20816;50.950;11.108;2023-02-15T01:16:24;18.73;;;4.03;;
34585;SDS011;20816;50.950;11.108;2023-02-15T01:18:56;17.07;;;6.83;;
34585;SDS011;20816;50.950;11.108;2023-02-15T01:21:23;32.83;;;6.50;;
34585;SDS011;20816;50.950;11.108;2023-02-15T01:23:51;9.27;;;4.07;;
34585;SDS011;20816;50.950;11.108;2023-02-15T01:26:21;4.27;;;3.03;;
34585;SDS011;20816;50.950;11.108;2023-02-15T01:28:51;5.20;;;3.00;;
34585;SDS011;20816;50.950;11.108;2023-02-15T01:31:19;8.20;;;5.17;;
34585;SDS011;20816;50.950;11.108;2023-02-15T01:33:47;12.73;;;4.17;;
34585;SDS011;20816;50.950;11.108;2023-02-15T01:36:14;9.03;;;4.17;;
34585;SDS011;20816;50.950;11.108;2023-02-15T01:38:43;7.93;;;4.37;;
34585;SDS011;20816;50.950;11.108;2023-02-15T01:41:10;9.53;;;3.93;;
34585;SDS011;20816;50.950;11.108;2023-02-15T01:43:59;16.47;;;5.10;;
34585;SDS011;20816;50.950;11.108;2023-02-15T01:46:35;6.87;;;3.23;;
34585;SDS011;20816;50.950;11.108;2023-02-15T01:49:09;8.90;;;4.67;;
34585;SDS011;20816;50.950;11.108;2023-02-15T01:51:40;6.30;;;3.60;;
34585;SDS011;20816;50.950;11.108;2023-02-15T01:54:15;10.93;;;3.17;;
34585;SDS011;20816;50.950;11.108;2023-02-15T01:56:47;8.37;;;4.57;;
34585;SDS011;20816;50.950;11.108;2023-02-15T01:59:16;7.30;;;3.47;;
34585;SDS011;20816;50.950;11.108;2023-02-15T02:01:46;7.87;;;3.57;;
34585;SDS011;20816;50.950;11.108;2023-02-15T02:04:19;4.40;;;2.97;;
34585;SDS011;20816;50.950;11.108;2023-02-15T02:06:55;4.00;;;3.37;;
34585;SDS011;20816;50.950;11.108;2023-02-15T02:09:23;3.73;;;2.77;;
34585;SDS011;20816;50.950;11.108;2023-02-15T02:11:50;6.90;;;3.17;;
34585;SDS011;20816;50.950;11.108;2023-02-15T02:14:28;7.40;;;3.17;;
34585;SDS011;20816;50.950;11.108;2023-02-15T02:29:13;5.50;;;2.30;;
34585;SDS011;20816;50.950;11.108;2023-02-15T02:34:51;3.10;;;2.50;;
34585;SDS011;20816;50.950;11.108;2023-02-15T02:37:20;3.50;;;2.17;;
34585;SDS011;20816;50.950;11.108;2023-02-15T02:40:09;3.63;;;2.07;;
34585;SDS011;20816;50.950;11.108;2023-02-15T02:43:30;4.67;;;1.87;;
34585;SDS011;20816;50.950;11.108;2023-02-15T02:46:02;4.93;;;2.60;;
34585;SDS011;20816;50.950;11.108;2023-02-15T02:48:35;2.63;;;1.40;;
34585;SDS011;20816;50.950;11.108;2023-02-15T02:51:03;2.33;;;1.77;;
34585;SDS011;20816;50.950;11.108;2023-02-15T02:53:30;2.97;;;2.37;;
34585;SDS011;20816;50.950;11.108;2023-02-15T02:56:13;9.90;;;2.17;;
34585;SDS011;20816;50.950;11.108;2023-02-15T03:04:01;4.27;;;2.63;;
34585;SDS011;20816;50.950;11.108;2023-02-15T03:06:40;5.57;;;3.10;;
34585;SDS011;20816;50.950;11.108;2023-02-15T03:09:19;3.60;;;2.20;;
34585;SDS011;20816;50.950;11.108;2023-02-15T03:12:01;3.20;;;1.83;;
34585;SDS011;20816;50.950;11.108;2023-02-15T03:14:29;4.00;;;2.50;;
34585;SDS011;20816;50.950;11.108;2023-02-15T03:16:56;6.67;;;2.03;;
34585;SDS011;20816;50.950;11.108;2023-02-15T03:19:27;3.13;;;1.70;;
34585;SDS011;20816;50.950;11.108;2023-02-15T03:21:58;3.53;;;2.40;;
34585;SDS011;20816;50.950;11.108;2023-02-15T03:24:36;5.60;;;2.47;;
34585;SDS011;20816;50.950;11.108;2023-02-15T03:27:20;4.07;;;2.60;;
34585;SDS011;20816;50.950;11.108;2023-02-15T03:29:56;5.20;;;2.67;;
34585;SDS011;20816;50.950;11.108;2023-02-15T03:32:26;5.83;;;2.87;;
34585;SDS011;20816;50.950;11.108;2023-02-15T03:34:55;7.00;;;4.60;;
34585;SDS011;20816;50.950;11.108;2023-02-15T03:37:26;8.77;;;4.53;;
34585;SDS011;20816;50.950;11.108;2023-02-15T03:49:10;7.20;;;3.50;;
34585;SDS011;20816;50.950;11.108;2023-02-15T03:51:42;4.60;;;2.63;;
34585;SDS011;20816;50.950;11.108;2023-02-15T03:54:28;10.47;;;3.53;;
34585;SDS011;20816;50.950;11.108;2023-02-15T04:00:23;11.17;;;4.43;;
34585;SDS011;20816;50.950;11.108;2023-02-15T04:06:02;11.27;;;3.57;;
34585;SDS011;20816;50.950;11.108;2023-02-15T04:08:29;4.90;;;3.40;;
34585;SDS011;20816;50.950;11.108;2023-02-15T04:11:14;7.10;;;3.77;;
34585;SDS011;20816;50.950;11.108;2023-02-15T04:13:41;7.20;;;4.03;;
34585;SDS011;20816;50.950;11.108;2023-02-15T04:16:08;7.90;;;4.03;;
34585;SDS011;20816;50.950;11.108;2023-02-15T04:21:22;9.30;;;3.50;;
34585;SDS011;20816;50.950;11.108;2023-02-15T04:24:08;5.17;;;3.70;;
34585;SDS011;20816;50.950;11.108;2023-02-15T04:26:54;7.83;;;3.73;;
34585;SDS011;20816;50.950;11.108;2023-02-15T04:29:24;6.30;;;3.07;;
34585;SDS011;20816;50.950;11.108;2023-02-15T04:31:55;7.67;;;3.77;;
34585;SDS011;20816;50.950;11.108;2023-02-15T04:34:24;7.90;;;3.47;;
34585;SDS011;20816;50.950;11.108;2023-02-15T04:36:51;4.93;;;2.17;;
34585;SDS011;20816;50.950;11.108;2023-02-15T04:39:18;8.17;;;3.57;;
34585;SDS011;20816;50.950;11.108;2023-02-15T04:41:45;4.63;;;2.83;;
34585;SDS011;20816;50.950;11.108;2023-02-15T04:44:12;6.43;;;3.67;;
34585;SDS011;20816;50.950;11.108;2023-02-15T04:46:43;6.27;;;3.00;;
34585;SDS011;20816;50.950;11.108;2023-02-15T04:49:10;2.33;;;1.67;;
34585;SDS011;20816;50.950;11.108;2023-02-15T04:51:36;9.47;;;2.70;;
34585;SDS011;20816;50.950;11.108;2023-02-15T04:54:10;7.70;;;2.50;;
34585;SDS011;20816;50.950;11.108;2023-02-15T04:56:37;6.57;;;2.87;;
34585;SDS011;20816;50.950;11.108;2023-02-15T04:59:05;6.83;;;4.23;;
34585;SDS011;20816;50.950;11.108;2023-02-15T05:01:39;8.20;;;3.53;;
34585;SDS011;20816;50.950;11.108;2023-02-15T05:04:06;4.10;;;3.40;;
34585;SDS011;20816;50.950;11.108;2023-02-15T05:06:33;2.53;;;1.77;;
34585;SDS011;20816;50.950;11.108;2023-02-15T05:08:59;5.23;;;2.83;;
34585;SDS011;20816;50.950;11.108;2023-02-15T05:11:26;7.93;;;3.97;;
34585;SDS011;20816;50.950;11.108;2023-02-15T05:13:53;3.47;;;2.70;;
34585;SDS011;20816;50.950;11.108;2023-02-15T05:16:19;3.03;;;2.30;;
34585;SDS011;20816;50.950;11.108;2023-02-15T05:18:46;4.00;;;2.50;;
34585;SDS011;20816;50.950;11.108;2023-02-15T05:21:13;3.53;;;1.77;;
34585;SDS011;20816;50.950;11.108;2023-02-15T05:23:40;5.07;;;2.90;;
34585;SDS011;20816;50.950;11.108;2023-02-15T05:26:07;3.60;;;1.87;;
34585;SDS011;20816;50.950;11.108;2023-02-15T05:28:57;4.93;;;2.67;;
34585;SDS011;20816;50.950;11.108;2023-02-15T05:31:24;7.27;;;2.73;;
34585;SDS011;20816;50.950;11.108;2023-02-15T05:33:50;6.67;;;2.73;;
34585;SDS011;20816;50.950;11.108;2023-02-15T05:36:18;5.20;;;3.53;;
34585;SDS011;20816;50.950;11.108;2023-02-15T05:38:45;4.20;;;2.80;;
34585;SDS011;20816;50.950;11.108;2023-02-15T05:41:11;8.80;;;3.50;;
34585;SDS011;20816;50.950;11.108;2023-02-15T05:43:38;5.37;;;2.73;;
34585;SDS011;20816;50.950;11.108;2023-02-15T05:46:05;7.67;;;2.77;;
34585;SDS011;20816;50.950;11.108;2023-02-15T05:48:32;6.53;;;3.97;;
34585;SDS011;20816;50.950;11.108;2023-02-15T05:51:08;2.70;;;2.37;;
34585;SDS011;20816;50.950;11.108;2023-02-15T05:53:37;6.97;;;3.43;;
34585;SDS011;20816;50.950;11.108;2023-02-15T05:56:07;5.30;;;3.20;;
34585;SDS011;20816;50.950;11.108;2023-02-15T05:58:36;4.63;;;2.63;;
34585;SDS011;20816;50.950;11.108;2023-02-15T06:01:08;6.87;;;3.23;;
34585;SDS011;20816;50.950;11.108;2023-02-15T06:03:39;5.93;;;2.77;;
34585;SDS011;20816;50.950;11.108;2023-02-15T06:06:07;9.63;;;2.57;;
34585;SDS011;20816;50.950;11.108;2023-02-15T06:08:35;6.30;;;2.73;;
34585;SDS011;20816;50.950;11.108;2023-02-15T06:11:03;4.20;;;2.60;;
34585;SDS011;20816;50.950;11.108;2023-02-15T06:13:30;7.87;;;2.90;;
34585;SDS011;20816;50.950;11.108;2023-02-15T06:15:58;3.13;;;2.50;;
34585;SDS011;20816;50.950;11.108;2023-02-15T06:18:25;5.00;;;2.43;;
34585;SDS011;20816;50.950;11.108;2023-02-15T06:20:51;3.53;;;2.00;;
34585;SDS011;20816;50.950;11.108;2023-02-15T06:23:18;5.03;;;2.63;;
34585;SDS011;20816;50.950;11.108;2023-02-15T06:25:46;3.97;;;2.30;;
34585;SDS011;20816;50.950;11.108;2023-02-15T06:28:20;6.03;;;2.77;;
34585;SDS011;20816;50.950;11.108;2023-02-15T06:30:47;6.13;;;2.83;;
34585;SDS011;20816;50.950;11.108;2023-02-15T06:33:14;8.50;;;2.73;;
34585;SDS011;20816;50.950;11.108;2023-02-15T06:35:40;4.07;;;2.30;;
34585;SDS011;20816;50.950;11.108;2023-02-15T06:38:07;5.13;;;2.93;;
34585;SDS011;20816;50.950;11.108;2023-02-15T06:40:43;4.70;;;2.33;;
34585;SDS011;20816;50.950;11.108;2023-02-15T06:43:10;9.07;;;3.53;;
34585;SDS011;20816;50.950;11.108;2023-02-15T06:45:47;2.80;;;1.80;;
34585;SDS011;20816;50.950;11.108;2023-02-15T06:48:14;5.10;;;2.20;;
34585;SDS011;20816;50.950;11.108;2023-02-15T06:50:41;4.10;;;2.60;;
34585;SDS011;20816;50.950;11.108;2023-02-15T06:53:11;5.87;;;2.70;;
34585;SDS011;20816;50.950;11.108;2023-02-15T06:55:37;6.33;;;3.70;;
34585;SDS011;20816;50.950;11.108;2023-02-15T06:58:04;5.60;;;1.97;;
34585;SDS011;20816;50.950;11.108;2023-02-15T07:00:35;4.80;;;2.47;;
34585;SDS011;20816;50.950;11.108;2023-02-15T07:03:02;7.07;;;2.70;;
34585;SDS011;20816;50.950;11.108;2023-02-15T07:05:32;3.77;;;1.93;;
34585;SDS011;20816;50.950;11.108;2023-02-15T07:08:02;4.80;;;2.97;;
34585;SDS011;20816;50.950;11.108;2023-02-15T07:10:29;7.13;;;3.40;;
34585;SDS011;20816;50.950;11.108;2023-02-15T07:12:56;3.93;;;2.90;;
34585;SDS011;20816;50.950;11.108;2023-02-15T07:15:23;8.23;;;3.57;;
34585;SDS011;20816;50.950;11.108;2023-02-15T07:17:50;8.03;;;3.67;;
34585;SDS011;20816;50.950;11.108;2023-02-15T07:20:21;6.23;;;3.00;;
34585;SDS011;20816;50.950;11.108;2023-02-15T07:22:49;6.20;;;2.87;;
34585;SDS011;20816;50.950;11.108;2023-02-15T07:25:16;6.37;;;3.40;;
34585;SDS011;20816;50.950;11.108;2023-02-15T07:27:44;5.60;;;3.60;;
34585;SDS011;20816;50.950;11.108;2023-02-15T07:30:12;8.20;;;3.57;;
34585;SDS011;20816;50.950;11.108;2023-02-15T07:32:41;5.87;;;3.67;;
34585;SDS011;20816;50.950;11.108;2023-02-15T07:35:30;10.73;;;3.50;;
34585;SDS011;20816;50.950;11.108;2023-02-15T07:37:57;6.63;;;2.87;;
34585;SDS011;20816;50.950;11.108;2023-02-15T07:40:23;6.17;;;3.23;;
34585;SDS011;20816;50.950;11.108;2023-02-15T07:42:51;5.33;;;2.97;;
34585;SDS011;20816;50.950;11.108;2023-02-15T07:45:19;5.83;;;3.17;;
34585;SDS011;20816;50.950;11.108;2023-02-15T07:47:48;10.10;;;4.30;;
34585;SDS011;20816;50.950;11.108;2023-02-15T07:50:15;8.30;;;4.00;;
34585;SDS011;20816;50.950;11.108;2023-02-15T07:52:41;5.90;;;3.90;;
34585;SDS011;20816;50.950;11.108;2023-02-15T07:55:08;7.50;;;3.80;;
34585;SDS011;20816;50.950;11.108;2023-02-15T07:57:35;5.87;;;3.97;;
34585;SDS011;20816;50.950;11.108;2023-02-15T08:00:02;8.53;;;3.50;;
34585;SDS011;20816;50.950;11.108;2023-02-15T08:02:32;7.20;;;3.83;;
34585;SDS011;20816;50.950;11.108;2023-02-15T08:05:00;9.60;;;5.10;;
34585;SDS011;20816;50.950;11.108;2023-02-15T08:07:27;8.43;;;3.97;;
34585;SDS011;20816;50.950;11.108;2023-02-15T08:09:53;5.77;;;3.17;;
34585;SDS011;20816;50.950;11.108;2023-02-15T08:12:20;6.60;;;3.27;;
34585;SDS011;20816;50.950;11.108;2023-02-15T08:14:46;5.47;;;4.33;;
34585;SDS011;20816;50.950;11.108;2023-02-15T08:17:20;9.80;;;4.47;;
34585;SDS011;20816;50.950;11.108;2023-02-15T08:19:47;6.07;;;4.27;;
34585;SDS011;20816;50.950;11.108;2023-02-15T08:22:14;10.20;;;5.10;;
34585;SDS011;20816;50.950;11.108;2023-02-15T08:24:40;13.13;;;4.77;;
34585;SDS011;20816;50.950;11.108;2023-02-15T08:27:08;6.60;;;3.77;;
34585;SDS011;20816;50.950;11.108;2023-02-15T08:29:39;6.97;;;4.57;;
34585;SDS011;20816;50.950;11.108;2023-02-15T08:32:08;12.93;;;4.30;;
34585;SDS011;20816;50.950;11.108;2023-02-15T08:34:38;9.47;;;4.77;;
34585;SDS011;20816;50.950;11.108;2023-02-15T08:37:06;12.33;;;4.73;;
34585;SDS011;20816;50.950;11.108;2023-02-15T08:39:33;10.30;;;5.60;;
34585;SDS011;20816;50.950;11.108;2023-02-15T08:42:03;8.87;;;4.73;;
34585;SDS011;20816;50.950;11.108;2023-02-15T08:44:30;8.93;;;4.93;;
34585;SDS011;20816;50.950;11.108;2023-02-15T08:46:57;9.27;;;4.83;;
34585;SDS011;20816;50.950;11.108;2023-02-15T08:49:29;9.07;;;4.87;;
34585;SDS011;20816;50.950;11.108;2023-02-15T08:51:55;8.27;;;4.27;;
34585;SDS011;20816;50.950;11.108;2023-02-15T08:54:26;7.37;;;4.20;;
34585;SDS011;20816;50.950;11.108;2023-02-15T08:56:52;5.53;;;2.60;;
34585;SDS011;20816;50.950;11.108;2023-02-15T08:59:20;3.37;;;2.57;;
34585;SDS011;20816;50.950;11.108;2023-02-15T09:01:48;4.87;;;2.70;;
34585;SDS011;20816;50.950;11.108;2023-02-15T09:04:16;4.13;;;2.43;;
34585;SDS011;20816;50.950;11.108;2023-02-15T09:06:47;4.83;;;3.17;;
34585;SDS011;20816;50.950;11.108;2023-02-15T09:09:15;3.80;;;2.40;;
34585;SDS011;20816;50.950;11.108;2023-02-15T09:11:43;3.53;;;2.33;;
34585;SDS011;20816;50.950;11.108;2023-02-15T09:14:14;5.10;;;2.73;;
34585;SDS011;20816;50.950;11.108;2023-02-15T09:16:55;3.97;;;2.47;;
34585;SDS011;20816;50.950;11.108;2023-02-15T09:19:22;3.93;;;2.27;;
34585;SDS011;20816;50.950;11.108;2023-02-15T09:21:49;3.03;;;2.23;;
34585;SDS011;20816;50.950;11.108;2023-02-15T09:24:16;3.77;;;2.80;;
34585;SDS011;20816;50.950;11.108;2023-02-15T09:26:45;3.10;;;2.17;;
34585;SDS011;20816;50.950;11.108;2023-02-15T09:29:15;2.60;;;1.70;;
34585;SDS011;20816;50.950;11.108;2023-02-15T09:31:44;2.90;;;2.37;;
34585;SDS011;20816;50.950;11.108;2023-02-15T09:34:13;3.23;;;2.30;;
34585;SDS011;20816;50.950;11.108;2023-02-15T09:36:42;2.83;;;2.00;;
34585;SDS011;20816;50.950;11.108;2023-02-15T09:39:10;3.53;;;2.27;;
34585;SDS011;20816;50.950;11.108;2023-02-15T09:52:51;5.03;;;2.00;;
34585;SDS011;20816;50.950;11.108;2023-02-15T09:58:14;2.70;;;1.80;;
34585;SDS011;20816;50.950;11.108;2023-02-15T10:06:36;2.37;;;1.80;;
34585;SDS011;20816;50.950;11.108;2023-02-15T10:12:01;2.77;;;2.00;;
34585;SDS011;20816;50.950;11.108;2023-02-15T10:20:28;4.07;;;2.10;;
34585;SDS011;20816;50.950;11.108;2023-02-15T10:26:29;4.97;;;1.83;;
34585;SDS011;20816;50.950;11.108;2023-02-15T10:34:38;2.33;;;1.90;;
34585;SDS011;20816;50.950;11.108;2023-02-15T10:45:43;2.23;;;1.50;;
34585;SDS011;20816;50.950;11.108;2023-02-15T10:48:22;1.97;;;1.60;;
34585;SDS011;20816;50.950;11.108;2023-02-15T10:50:51;2.70;;;2.00;;
34585;SDS011;20816;50.950;11.108;2023-02-15T10:56:27;3.03;;;1.63;;
34585;SDS011;20816;50.950;11.108;2023-02-15T11:04:51;4.37;;;2.00;;
34585;SDS011;20816;50.950;11.108;2023-02-15T11:07:24;2.73;;;2.07;;
34585;SDS011;20816;50.950;11.108;2023-02-15T11:10:42;2.30;;;2.10;;
34585;SDS011;20816;50.950;11.108;2023-02-15T11:13:02;2.37;;;1.53;;
34585;SDS011;20816;50.950;11.108;2023-02-15T11:18:14;3.67;;;1.70;;
34585;SDS011;20816;50.950;11.108;2023-02-15T11:20:50;5.20;;;2.67;;
34585;SDS011;20816;50.950;11.108;2023-02-15T11:23:21;3.03;;;2.00;;
34585;SDS011;20816;50.950;11.108;2023-02-15T11:25:58;3.07;;;2.27;;
34585;SDS011;20816;50.950;11.108;2023-02-15T11:28:29;3.97;;;2.57;;
34585;SDS011;20816;50.950;11.108;2023-02-15T11:31:02;4.07;;;2.53;;
34585;SDS011;20816;50.950;11.108;2023-02-15T11:33:45;1.70;;;1.57;;
34585;SDS011;20816;50.950;11.108;2023-02-15T11:36:18;3.57;;;2.20;;
34585;SDS011;20816;50.950;11.108;2023-02-15T11:38:51;3.60;;;2.50;;
34585;SDS011;20816;50.950;11.108;2023-02-15T11:41:24;3.13;;;2.10;;
34585;SDS011;20816;50.950;11.108;2023-02-15T11:44:05;3.43;;;2.50;;
34585;SDS011;20816;50.950;11.108;2023-02-15T11:46:41;4.27;;;3.00;;
34585;SDS011;20816;50.950;11.108;2023-02-15T11:49:22;4.27;;;2.50;;
34585;SDS011;20816;50.950;11.108;2023-02-15T11:51:57;5.00;;;2.30;;
34585;SDS011;20816;50.950;11.108;2023-02-15T11:54:27;3.70;;;2.13;;
34585;SDS011;20816;50.950;11.108;2023-02-15T11:56:58;3.30;;;2.33;;
34585;SDS011;20816;50.950;11.108;2023-02-15T11:59:40;4.40;;;2.53;;
34585;SDS011;20816;50.950;11.108;2023-02-15T12:02:17;2.27;;;2.03;;
34585;SDS011;20816;50.950;11.108;2023-02-15T12:05:00;3.63;;;2.37;;
34585;SDS011;20816;50.950;11.108;2023-02-15T12:07:34;3.57;;;2.60;;
34585;SDS011;20816;50.950;11.108;2023-02-15T12:10:19;2.87;;;2.00;;
34585;SDS011;20816;50.950;11.108;2023-02-15T12:13:11;3.28;;;2.30;;
34585;SDS011;20816;50.950;11.108;2023-02-15T12:15:45;3.70;;;2.20;;
34585;SDS011;20816;50.950;11.108;2023-02-15T12:21:07;4.23;;;2.87;;
34585;SDS011;20816;50.950;11.108;2023-02-15T12:23:40;3.43;;;2.40;;
34585;SDS011;20816;50.950;11.108;2023-02-15T12:26:13;4.10;;;2.37;;
34585;SDS011;20816;50.950;11.108;2023-02-15T12:28:42;2.60;;;1.90;;
34585;SDS011;20816;50.950;11.108;2023-02-15T12:31:22;3.23;;;2.10;;
34585;SDS011;20816;50.950;11.108;2023-02-15T12:33:53;5.17;;;3.10;;
34585;SDS011;20816;50.950;11.108;2023-02-15T12:36:29;2.53;;;2.33;;
34585;SDS011;20816;50.950;11.108;2023-02-15T12:41:52;3.50;;;2.33;;
34585;SDS011;20816;50.950;11.108;2023-02-15T12:44:28;4.17;;;2.80;;
34585;SDS011;20816;50.950;11.108;2023-02-15T12:49:45;4.33;;;2.97;;
34585;SDS011;20816;50.950;11.108;2023-02-15T12:55:51;4.87;;;2.67;;
34585;SDS011;20816;50.950;11.108;2023-02-15T12:58:24;3.78;;;2.25;;
34585;SDS011;20816;50.950;11.108;2023-02-15T13:03:35;4.03;;;2.23;;
34585;SDS011;20816;50.950;11.108;2023-02-15T13:06:05;5.23;;;2.80;;
34585;SDS011;20816;50.950;11.108;2023-02-15T13:08:39;3.70;;;2.50;;
34585;SDS011;20816;50.950;11.108;2023-02-15T13:11:15;3.67;;;2.37;;
34585;SDS011;20816;50.950;11.108;2023-02-15T13:13:58;3.87;;;2.17;;
34585;SDS011;20816;50.950;11.108;2023-02-15T13:16:31;4.43;;;2.77;;
34585;SDS011;20816;50.950;11.108;2023-02-15T13:19:18;6.23;;;3.10;;
34585;SDS011;20816;50.950;11.108;2023-02-15T13:21:52;5.50;;;2.20;;
34585;SDS011;20816;50.950;11.108;2023-02-15T13:24:29;5.27;;;2.70;;
34585;SDS011;20816;50.950;11.108;2023-02-15T13:27:03;5.73;;;3.23;;
34585;SDS011;20816;50.950;11.108;2023-02-15T13:29:42;4.60;;;3.17;;
34585;SDS011;20816;50.950;11.108;2023-02-15T13:32:21;3.77;;;2.37;;
34585;SDS011;20816;50.950;11.108;2023-02-15T13:34:54;4.37;;;2.87;;
34585;SDS011;20816;50.950;11.108;2023-02-15T13:40:27;4.37;;;2.93;;
34585;SDS011;20816;50.950;11.108;2023-02-15T13:48:51;5.03;;;2.93;;
34585;SDS011;20816;50.950;11.108;2023-02-15T13:51:35;4.37;;;2.83;;
34585;SDS011;20816;50.950;11.108;2023-02-15T14:00:01;4.43;;;3.07;;
34585;SDS011;20816;50.950;11.108;2023-02-15T14:11:27;6.03;;;3.23;;
34585;SDS011;20816;50.950;11.108;2023-02-15T14:16:58;3.97;;;2.40;;
34585;SDS011;20816;50.950;11.108;2023-02-15T14:22:33;9.13;;;3.73;;
34585;SDS011;20816;50.950;11.108;2023-02-15T14:25:41;4.27;;;2.87;;
34585;SDS011;20816;50.950;11.108;2023-02-15T14:31:09;5.63;;;2.73;;
34585;SDS011;20816;50.950;11.108;2023-02-15T14:33:40;4.90;;;2.80;;
34585;SDS011;20816;50.950;11.108;2023-02-15T14:36:16;7.00;;;3.00;;
34585;SDS011;20816;50.950;11.108;2023-02-15T14:42:20;5.03;;;3.10;;
34585;SDS011;20816;50.950;11.108;2023-02-15T14:45:05;3.17;;;2.60;;
34585;SDS011;20816;50.950;11.108;2023-02-15T14:50:37;4.47;;;2.80;;
34585;SDS011;20816;50.950;11.108;2023-02-15T14:56:23;4.53;;;2.77;;
34585;SDS011;20816;50.950;11.108;2023-02-15T15:01:28;2.83;;;1.83;;
34585;SDS011;20816;50.950;11.108;2023-02-15T15:03:58;2.57;;;1.87;;
34585;SDS011;20816;50.950;11.108;2023-02-15T15:06:35;3.73;;;1.60;;
34585;SDS011;20816;50.950;11.108;2023-02-15T15:11:53;2.93;;;1.63;;
34585;SDS011;20816;50.950;11.108;2023-02-15T15:17:03;3.83;;;1.83;;
34585;SDS011;20816;50.950;11.108;2023-02-15T15:22:18;3.20;;;1.40;;
34585;SDS011;20816;50.950;11.108;2023-02-15T15:24:48;2.93;;;1.87;;
34585;SDS011;20816;50.950;11.108;2023-02-15T15:27:41;1.87;;;1.60;;
34585;SDS011;20816;50.950;11.108;2023-02-15T15:49:47;4.30;;;1.80;;
34585;SDS011;20816;50.950;11.108;2023-02-15T15:52:15;3.53;;;2.13;;
34585;SDS011;20816;50.950;11.108;2023-02-15T15:54:46;2.60;;;1.90;;
34585;SDS011;20816;50.950;11.108;2023-02-15T15:57:22;4.07;;;2.07;;
34585;SDS011;20816;50.950;11.108;2023-02-15T15:59:58;2.77;;;1.90;;
34585;SDS011;20816;50.950;11.108;2023-02-15T16:02:27;2.97;;;1.80;;
34585;SDS011;20816;50.950;11.108;2023-02-15T16:04:54;4.90;;;2.20;;
34585;SDS011;20816;50.950;11.108;2023-02-15T16:07:32;3.40;;;1.80;;
34585;SDS011;20816;50.950;11.108;2023-02-15T16:10:00;3.87;;;2.30;;
34585;SDS011;20816;50.950;11.108;2023-02-15T16:12:39;4.23;;;2.27;;
34585;SDS011;20816;50.950;11.108;2023-02-15T16:18:16;4.50;;;2.10;;
34585;SDS011;20816;50.950;11.108;2023-02-15T16:20:49;3.57;;;1.80;;
34585;SDS011;20816;50.950;11.108;2023-02-15T16:28:33;7.77;;;2.10;;
34585;SDS011;20816;50.950;11.108;2023-02-15T16:31:04;7.83;;;2.23;;
34585;SDS011;20816;50.950;11.108;2023-02-15T16:33:39;9.30;;;2.40;;
34585;SDS011;20816;50.950;11.108;2023-02-15T16:36:22;3.13;;;1.77;;
34585;SDS011;20816;50.950;11.108;2023-02-15T16:41:20;4.87;;;2.10;;
34585;SDS011;20816;50.950;11.108;2023-02-15T16:43:52;6.70;;;2.30;;
34585;SDS011;20816;50.950;11.108;2023-02-15T16:46:27;6.10;;;2.37;;
34585;SDS011;20816;50.950;11.108;2023-02-15T16:48:58;3.63;;;1.93;;
34585;SDS011;20816;50.950;11.108;2023-02-15T16:51:31;3.13;;;2.10;;
34585;SDS011;20816;50.950;11.108;2023-02-15T16:54:05;3.37;;;2.07;;
34585;SDS011;20816;50.950;11.108;2023-02-15T16:56:34;2.90;;;2.10;;
34585;SDS011;20816;50.950;11.108;2023-02-15T16:59:02;3.40;;;1.60;;
34585;SDS011;20816;50.950;11.108;2023-02-15T17:01:32;3.43;;;2.17;;
34585;SDS011;20816;50.950;11.108;2023-02-15T17:07:05;5.23;;;2.07;;
34585;SDS011;20816;50.950;11.108;2023-02-15T17:09:54;4.93;;;2.30;;
34585;SDS011;20816;50.950;11.108;2023-02-15T17:15:34;5.93;;;2.40;;
34585;SDS011;20816;50.950;11.108;2023-02-15T17:20:40;3.67;;;2.13;;
34585;SDS011;20816;50.950;11.108;2023-02-15T17:26:00;5.13;;;2.30;;
34585;SDS011;20816;50.950;11.108;2023-02-15T17:28:48;2.87;;;1.43;;
34585;SDS011;20816;50.950;11.108;2023-02-15T17:31:19;2.60;;;1.80;;
34585;SDS011;20816;50.950;11.108;2023-02-15T17:33:47;2.23;;;1.97;;
34585;SDS011;20816;50.950;11.108;2023-02-15T17:36:18;4.97;;;1.57;;
34585;SDS011;20816;50.950;11.108;2023-02-15T17:41:31;3.40;;;2.27;;
34585;SDS011;20816;50.950;11.108;2023-02-15T17:44:00;1.93;;;1.20;;
34585;SDS011;20816;50.950;11.108;2023-02-15T17:46:29;2.97;;;1.70;;
34585;SDS011;20816;50.950;11.108;2023-02-15T17:49:01;2.07;;;1.40;;
34585;SDS011;20816;50.950;11.108;2023-02-15T17:51:29;1.67;;;1.10;;
34585;SDS011;20816;50.950;11.108;2023-02-15T17:53:57;2.37;;;1.63;;
34585;SDS011;20816;50.950;11.108;2023-02-15T17:56:42;7.07;;;2.17;;
34585;SDS011;20816;50.950;11.108;2023-02-15T17:59:09;2.07;;;1.33;;
34585;SDS011;20816;50.950;11.108;2023-02-15T18:01:44;7.10;;;2.40;;
34585;SDS011;20816;50.950;11.108;2023-02-15T18:04:32;3.80;;;1.70;;
34585;SDS011;20816;50.950;11.108;2023-02-15T18:07:19;2.53;;;1.70;;
34585;SDS011;20816;50.950;11.108;2023-02-15T18:10:12;2.97;;;2.13;;
34585;SDS011;20816;50.950;11.108;2023-02-15T18:12:59;9.23;;;2.47;;
34585;SDS011;20816;50.950;11.108;2023-02-15T18:15:26;2.37;;;2.07;;
34585;SDS011;20816;50.950;11.108;2023-02-15T18:17:53;7.83;;;2.20;;
34585;SDS011;20816;50.950;11.108;2023-02-15T18:20:24;3.67;;;2.60;;
34585;SDS011;20816;50.950;11.108;2023-02-15T18:22:58;3.20;;;1.97;;
34585;SDS011;20816;50.950;11.108;2023-02-15T18:25:27;3.43;;;2.20;;
34585;SDS011;20816;50.950;11.108;2023-02-15T18:27:54;3.23;;;1.67;;
34585;SDS011;20816;50.950;11.108;2023-02-15T18:30:21;4.40;;;1.53;;